Time;durP1;ratioP1;P1;durP2;ratioP2;P2;SDS_P1;SDS_P2;PMS_P1;PMS_P2;Temp;Humidity;BMP_temperature;BMP_pressure;BME280_temperature;BME280_humidity;BME280_pressure;Samples;Min_cycle;Max_cycle;Signal;HPM_P1;HPM_P2
2021/11/07 00:01:43;;;;;;;136.10;62.15;;;;;;;-0.45;79.12;99804.05;4166864;85;21154;-81
2021/11/07 00:08:16;;;;;;;;;;;;;;;;;;;;;
2021/11/07 00:14:31;;;;;;;139.27;65.17;;;;;;;-0.28;79.61;99786.94;4172553;85;21550;-82
2021/11/07 00:20:33;;;;;;;125.97;59.70;;;;;;;-0.50;79.17;99786.61;4170524;84;21103;-81
2021/11/07 00:33:48;;;;;;;111.33;52.33;;;;;;;-0.56;80.59;99749.29;4217556;83;21616;-81
2021/11/07 00:39:42;;;;;;;120.63;54.83;;;;;;;-0.49;80.33;99741.17;4153075;83;20995;-81
2021/11/07 00:45:43;;;;;;;128.97;60.40;;;;;;;-0.73;79.55;99725.53;4165500;84;21062;-82
2021/11/07 00:58:42;;;;;;;115.10;56.70;;;;;;;-0.91;79.84;99740.22;4256267;82;21045;-82
2021/11/07 01:04:49;;;;;;;126.63;61.43;;;;;;;-0.81;80.69;99715.39;4254977;82;21030;-82
2021/11/07 01:11:04;;;;;;;127.30;58.07;;;;;;;-0.88;80.39;99689.93;4202873;82;20991;-81
2021/11/07 01:17:22;;;;;;;125.10;57.53;;;;;;;-0.95;80.95;99698.85;4219149;82;21034;-81
2021/11/07 01:23:42;;;;;;;122.60;56.27;;;;;;;-0.90;80.62;99686.19;4260398;82;21035;-81
2021/11/07 01:29:55;;;;;;;128.43;56.47;;;;;;;-0.89;80.71;99669.52;4261744;82;21066;-81
2021/11/07 01:42:41;;;;;;;119.80;55.47;;;;;;;-0.70;81.36;99650.22;4266876;82;20995;-82
2021/11/07 01:55:05;;;;;;;108.63;53.00;;;;;;;-0.85;80.63;99648.51;4259003;82;21023;-82
2021/11/07 02:01:10;;;;;;;99.17;45.93;;;;;;;-0.87;80.78;99631.86;4194746;84;21500;-82
2021/11/07 02:07:23;;;;;;;96.57;47.07;;;;;;;-0.89;81.42;99639.39;4180977;84;21832;-81
2021/11/07 02:13:27;;;;;;;93.27;42.90;;;;;;;-0.72;81.52;99614.77;4130101;85;21028;-82
2021/11/07 02:19:32;;;;;;;89.30;42.93;;;;;;;-0.64;81.30;99600.13;4196435;84;21023;-82
2021/11/07 02:25:36;;;;;;;107.23;46.27;;;;;;;-0.69;80.75;99584.63;4223175;83;21058;-82
2021/11/07 02:31:41;;;;;;;103.70;47.30;;;;;;;-0.80;81.30;99608.11;4236994;83;21070;-82
2021/11/07 02:37:54;;;;;;;98.30;45.05;;;;;;;-0.84;81.38;99609.78;4239371;83;21086;-82
2021/11/07 02:43:56;;;;;;;96.47;45.57;;;;;;;-0.86;81.35;99609.26;4232207;83;21435;-81
2021/11/07 02:50:08;;;;;;;89.53;44.30;;;;;;;-0.86;81.20;99601.19;4236275;82;21045;-82
2021/11/07 02:56:11;;;;;;;88.67;41.93;;;;;;;-0.88;81.69;99595.86;4255504;81;21002;-81
2021/11/07 03:02:14;;;;;;;91.17;40.43;;;;;;;-0.92;81.56;99574.65;4284684;82;21046;-81
2021/11/07 03:08:16;;;;;;;73.07;36.63;;;;;;;-1.04;81.49;99551.41;4270899;82;21042;-81
2021/11/07 03:21:20;;;;;;;70.53;33.30;;;;;;;-1.06;81.99;99536.11;4274725;82;21014;-81
2021/11/07 03:27:34;;;;;;;69.07;31.80;;;;;;;-1.04;82.26;99540.14;4255706;81;21030;-81
2021/11/07 03:34:28;;;;;;;;;;;;;;;;;;;;;
2021/11/07 03:39:41;;;;;;;71.67;34.33;;;;;;;-0.85;82.40;99524.86;4144596;84;21071;-81
2021/11/07 03:45:43;;;;;;;66.10;31.07;;;;;;;-0.79;82.60;99514.30;4114490;85;21019;-81
2021/11/07 03:51:48;;;;;;;61.57;31.10;;;;;;;-0.71;82.55;99508.81;4252495;82;21028;-81
2021/11/07 03:57:49;;;;;;;67.93;33.10;;;;;;;-0.74;82.59;99504.02;4249470;82;21031;-81
2021/11/07 04:03:51;;;;;;;69.73;32.97;;;;;;;-0.69;82.68;99490.52;4241631;83;21073;-81
2021/11/07 04:09:52;;;;;;;82.47;37.50;;;;;;;-0.63;82.99;99492.86;4233874;83;21022;-81
2021/11/07 04:15:56;;;;;;;72.50;32.23;;;;;;;-0.52;83.43;99502.35;4248826;82;21050;-82
2021/11/07 04:22:08;;;;;;;92.30;39.97;;;;;;;-0.37;83.51;99497.31;4242302;83;21057;-82
2021/11/07 04:28:13;;;;;;;86.70;38.60;;;;;;;-0.23;83.53;99500.87;4239652;83;21039;-81
2021/11/07 04:34:20;;;;;;;83.80;37.90;;;;;;;-0.16;83.80;99481.13;4251091;83;21010;-82
2021/11/07 04:40:27;;;;;;;80.60;38.95;;;;;;;-0.04;83.29;99476.89;4247772;83;21042;-82
2021/11/07 04:46:41;;;;;;;;;;;;;;;0.03;83.82;99474.61;4239736;83;21046;-82
2021/11/07 04:52:45;;;;;;;96.12;39.78;;;;;;;0.35;83.70;99456.83;4237865;82;20159;-82
2021/11/07 04:58:52;;;;;;;96.42;43.28;;;;;;;0.35;83.70;99456.83;4204463;83;21539;-82
2021/11/07 05:04:55;;;;;;;85.38;41.00;;;;;;;0.34;84.07;99443.13;4195003;84;21023;-82
2021/11/07 05:11:03;;;;;;;84.30;38.63;;;;;;;0.39;83.56;99420.95;4191444;84;21033;-82
2021/11/07 05:17:05;;;;;;;73.92;35.63;;;;;;;0.42;84.39;99412.81;4180495;84;21043;-82
2021/11/07 05:23:09;;;;;;;74.97;37.35;;;;;;;0.55;84.52;99391.26;4175521;84;21075;-82
2021/11/07 05:29:25;;;;;;;74.12;36.20;;;;;;;0.45;84.43;99364.55;4187540;84;21110;-82
2021/11/07 05:35:26;;;;;;;77.20;37.15;;;;;;;0.65;84.48;99376.25;4185866;83;21007;-82
2021/11/07 05:41:27;;;;;;;69.27;35.40;;;;;;;0.53;85.13;99358.45;4189245;84;21447;-82
2021/11/07 05:47:42;;;;;;;64.35;32.05;;;;;;;0.53;85.13;99358.45;4198315;83;21087;-82
2021/11/07 05:54:05;;;;;;;72.45;33.00;;;;;;;0.59;85.04;99361.83;4193723;84;21043;-82
2021/11/07 06:00:14;;;;;;;72.22;34.13;;;;;;;0.68;85.39;99339.27;4182961;84;21406;-82
2021/11/07 06:06:15;;;;;;;69.25;34.55;;;;;;;0.89;85.40;99324.23;4267950;82;20995;-82
2021/11/07 06:12:59;;;;;;;78.07;37.13;;;;;;;0.89;85.40;99324.23;4224435;82;21062;-82
2021/11/07 06:19:00;;;;;;;69.37;35.88;;;;;;;0.89;85.49;99299.98;4264145;81;21386;-82
2021/11/07 06:25:17;;;;;;;67.17;34.25;;;;;;;0.85;85.69;99332.70;4262354;82;21515;-83
2021/11/07 06:31:22;;;;;;;73.35;35.33;;;;;;;0.92;85.42;99337.67;4266867;82;21062;-83
2021/11/07 06:37:25;;;;;;;79.45;37.90;;;;;;;1.00;86.21;99327.53;4251517;82;21322;-82
2021/11/07 06:43:28;;;;;;;93.15;40.40;;;;;;;1.12;86.08;99314.30;4248036;82;21097;-82
2021/11/07 06:49:29;;;;;;;133.27;53.75;;;;;;;1.24;86.02;99313.19;4260567;81;21020;-83
2021/11/07 06:55:31;;;;;;;119.33;49.83;;;;;;;1.30;86.58;99314.69;4240584;82;21609;-83
2021/11/07 07:01:35;;;;;;;100.22;46.45;;;;;;;1.45;86.92;99296.23;4130910;84;20995;-83
2021/11/07 07:07:42;;;;;;;96.60;45.00;;;;;;;1.63;86.75;99305.20;4135239;85;21124;-82
2021/11/07 07:13:57;;;;;;;83.05;41.15;;;;;;;1.76;87.02;99300.28;4128587;85;21028;-78
2021/11/07 07:20:27;;;;;;;75.97;36.93;;;;;;;1.90;87.18;99310.98;4157892;85;21036;-80
2021/11/07 07:34:05;;;;;;;;;;;;;;;2.09;86.80;99295.34;4111664;85;21111;-82
2021/11/07 07:40:08;;;;;;;57.23;29.57;;;;;;;2.26;87.60;99290.00;4126902;85;20600;-82
2021/11/07 07:46:11;;;;;;;59.25;30.70;;;;;;;2.42;87.46;99289.27;4127143;85;21068;-81
2021/11/07 07:52:12;;;;;;;58.38;30.57;;;;;;;2.52;87.21;99253.83;4144153;85;21499;-83
2021/11/07 07:58:14;;;;;;;66.07;33.02;;;;;;;2.73;87.20;99244.55;4112103;85;21593;-81
2021/11/07 08:04:16;;;;;;;63.78;33.25;;;;;;;3.08;87.74;99232.08;4109497;85;21729;-82
2021/11/07 08:10:18;;;;;;;55.48;29.67;;;;;;;3.49;88.13;99227.47;4032440;87;22007;-81
2021/11/07 08:16:22;;;;;;;47.45;23.52;;;;;;;3.94;87.93;99227.22;4032645;86;21043;-81
2021/11/07 08:22:23;;;;;;;43.45;23.05;;;;;;;4.49;87.13;99221.65;4012432;87;21555;-83
2021/11/07 08:28:25;;;;;;;43.00;22.48;;;;;;;5.23;87.24;99204.05;4114044;85;21116;-82
2021/11/07 08:34:28;;;;;;;33.40;18.40;;;;;;;6.51;87.36;99201.09;4097001;85;21552;-81
2021/11/07 08:40:33;;;;;;;30.88;18.27;;;;;;;7.73;86.01;99200.47;4020801;87;21594;-82
2021/11/07 09:11:54;;;;;;;26.15;15.00;;;;;;;12.00;79.54;99138.90;4202461;84;22074;-85
2021/11/07 09:17:55;;;;;;;24.55;15.85;;;;;;;12.05;77.45;99126.20;4208641;84;21521;-83
2021/11/07 09:24:02;;;;;;;26.02;14.73;;;;;;;12.45;77.21;99133.72;4211140;84;22255;-83
2021/11/07 09:36:21;;;;;;;30.82;17.75;;;;;;;13.81;75.36;99108.44;4221318;84;21634;-83
2021/11/07 09:48:28;;;;;;;19.35;11.80;;;;;;;15.04;73.28;99070.92;4216308;84;21074;-83
2021/11/07 09:54:31;;;;;;;18.37;11.85;;;;;;;14.85;71.20;99059.02;4101878;84;21036;-86
2021/11/07 10:00:42;;;;;;;20.20;10.40;;;;;;;14.93;70.66;99046.19;4217213;83;21025;-83
2021/11/07 10:06:48;;;;;;;15.18;10.03;;;;;;;14.70;69.60;99035.48;4215440;83;20989;-84
2021/11/07 10:12:51;;;;;;;16.73;9.10;;;;;;;14.20;68.81;99032.87;4220402;83;21008;-84
2021/11/07 10:19:02;;;;;;;14.03;8.95;;;;;;;13.84;68.35;99028.62;4220242;82;21047;-84
2021/11/07 10:25:08;;;;;;;14.93;7.95;;;;;;;14.42;68.06;99017.70;4212954;83;21101;-83
2021/11/07 10:31:17;;;;;;;10.05;6.72;;;;;;;15.06;66.89;99019.73;4188472;83;21134;-83
2021/11/07 10:43:43;;;;;;;9.70;5.92;;;;;;;14.70;64.53;99000.45;4215014;83;21016;-83
2021/11/07 10:56:13;;;;;;;9.78;6.00;;;;;;;14.32;63.76;98990.97;4208750;83;21047;-83
2021/11/07 11:02:42;;;;;;;9.43;5.67;;;;;;;14.02;61.50;98974.34;4191292;83;21079;-83
2021/11/07 11:08:53;;;;;;;10.00;4.80;;;;;;;13.74;61.23;98959.86;4167807;84;21067;-82
2021/11/07 11:15:11;;;;;;;9.23;3.70;;;;;;;13.46;57.24;98942.83;4174336;84;21014;-84
2021/11/07 11:21:26;;;;;;;4.85;2.00;;;;;;;13.01;58.76;98929.11;4163224;84;21042;-83
2021/11/07 11:33:48;;;;;;;5.25;2.60;;;;;;;13.06;56.97;98908.11;4152355;84;20162;-83
2021/11/07 11:39:48;;;;;;;3.62;2.10;;;;;;;13.03;57.35;98907.52;4154724;84;21572;-84
2021/11/07 11:45:56;;;;;;;5.03;2.70;;;;;;;12.90;57.20;98891.19;4169295;84;21027;-82
2021/11/07 11:52:21;;;;;;;8.30;3.00;;;;;;;12.68;56.89;98871.76;4167649;84;21094;-82
2021/11/07 11:59:20;;;;;;;5.28;2.85;;;;;;;12.52;54.95;98859.78;4168774;83;21035;-83
2021/11/07 12:05:46;;;;;;;6.22;2.85;;;;;;;12.46;56.15;98853.11;4162023;83;21348;-83
2021/11/07 12:11:56;;;;;;;4.05;2.25;;;;;;;12.45;57.05;98838.59;4184918;83;21038;-84
2021/11/07 12:18:08;;;;;;;4.60;2.15;;;;;;;12.47;56.27;98826.63;4179895;83;20963;-83
2021/11/07 12:24:09;;;;;;;7.42;2.42;;;;;;;12.40;56.16;98823.87;4171745;84;21031;-83
2021/11/07 12:30:22;;;;;;;6.35;3.10;;;;;;;12.26;56.56;98816.99;4186182;84;21031;-83
2021/11/07 12:36:39;;;;;;;4.33;2.62;;;;;;;12.16;56.53;98806.80;4181065;83;21102;-83
2021/11/07 12:42:37;;;;;;;4.30;2.90;;;;;;;12.05;57.18;98803.83;4173301;83;21022;-83
2021/11/07 12:48:48;;;;;;;5.00;3.60;;;;;;;11.96;57.03;98799.30;4193946;84;21090;-83
2021/11/07 12:55:23;;;;;;;7.55;3.90;;;;;;;11.85;57.08;98788.89;4166799;84;21463;-83
2021/11/07 13:01:26;;;;;;;5.50;3.45;;;;;;;11.78;57.29;98782.80;4155929;84;21063;-83
2021/11/07 13:07:55;;;;;;;6.85;3.20;;;;;;;11.76;57.15;98783.00;4139909;85;21533;-83
2021/11/07 13:14:06;;;;;;;8.65;3.87;;;;;;;11.73;57.21;98781.80;4137188;85;21023;-84
2021/11/07 13:33:22;;;;;;;7.08;3.33;;;;;;;11.69;56.73;98769.25;4117869;85;21122;-83
2021/11/07 13:39:33;;;;;;;6.85;3.62;;;;;;;11.69;57.23;98770.05;4135013;84;21027;-83
2021/11/07 13:45:40;;;;;;;7.65;3.83;;;;;;;11.66;56.49;98754.37;4131347;85;21055;-84
2021/11/07 13:51:53;;;;;;;7.05;3.58;;;;;;;11.56;56.98;98746.85;4148123;85;21117;-83
2021/11/07 13:57:56;;;;;;;6.67;4.15;;;;;;;11.48;56.72;98741.14;4132053;84;21059;-83
2021/11/07 14:03:58;;;;;;;5.65;3.40;;;;;;;11.39;56.88;98737.20;4052167;83;10000157;-84
2021/11/07 14:10:14;;;;;;;8.78;4.40;;;;;;;11.29;56.69;98735.98;4217115;83;21058;-83
2021/11/07 14:24:16;;;;;;;7.72;3.60;;;;;;;10.87;57.13;98720.14;4118295;85;21460;-83
2021/11/07 14:30:23;;;;;;;6.10;3.67;;;;;;;10.56;57.23;98703.52;4075892;84;21058;-83
2021/11/07 14:36:39;;;;;;;7.47;3.83;;;;;;;10.51;57.03;98698.40;4028137;87;21067;-83
2021/11/07 14:49:42;;;;;;;5.30;3.10;;;;;;;10.33;56.73;98701.61;4114132;85;21031;-83
2021/11/07 14:56:40;;;;;;;6.80;3.35;;;;;;;10.21;57.16;98699.18;4167832;84;21051;-82
2021/11/07 15:08:56;;;;;;;8.68;4.35;;;;;;;9.92;57.64;98688.55;4076500;84;10000188;-83
2021/11/07 15:22:00;;;;;;;8.40;5.33;;;;;;;9.80;57.70;98688.05;4165658;83;21532;-82
2021/11/07 15:28:02;;;;;;;11.70;6.35;;;;;;;9.75;57.74;98683.72;4149430;84;21014;-83
2021/11/07 15:34:08;;;;;;;13.45;5.42;;;;;;;9.62;57.66;98678.88;4164124;84;21048;-83
2021/11/07 15:40:10;;;;;;;9.88;4.87;;;;;;;9.39;58.45;98677.69;4170313;84;21042;-82
2021/11/07 15:46:15;;;;;;;5.92;3.72;;;;;;;9.24;59.07;98677.31;4167073;84;21062;-83
2021/11/07 15:52:26;;;;;;;11.95;5.10;;;;;;;9.21;59.21;98700.70;4142129;84;21065;-83
2021/11/07 15:58:35;;;;;;;10.15;5.00;;;;;;;9.11;60.25;98692.39;4162587;84;21007;-83
2021/11/07 16:05:39;;;;;;;8.00;4.53;;;;;;;9.03;60.82;98695.63;4192111;83;21014;-83
2021/11/07 16:11:50;;;;;;;8.38;4.40;;;;;;;9.04;61.19;98694.45;4216707;82;21569;-83
2021/11/07 16:17:50;;;;;;;11.90;5.62;;;;;;;9.06;61.09;98690.78;4183762;83;21073;-82
2021/11/07 16:31:01;;;;;;;16.77;8.35;;;;;;;9.09;61.93;98679.69;4108809;85;21829;-82
2021/11/07 16:36:59;;;;;;;21.12;10.58;;;;;;;9.06;61.55;98691.35;4139323;85;21051;-83
2021/11/07 16:43:07;;;;;;;21.62;10.58;;;;;;;9.05;61.62;98703.44;4132471;85;21008;-82
2021/11/07 16:49:10;;;;;;;22.22;11.93;;;;;;;9.02;61.62;98702.22;4153906;85;21043;-84
2021/11/07 16:55:14;;;;;;;22.93;11.60;;;;;;;9.02;61.79;98699.49;4140706;85;21043;-82
2021/11/07 17:01:25;;;;;;;22.73;11.97;;;;;;;9.01;62.02;98721.14;4133986;85;21088;-83
2021/11/07 17:07:37;;;;;;;24.52;12.18;;;;;;;9.00;62.08;98726.97;4108615;85;21024;-82
2021/11/07 17:13:33;;;;;;;21.97;11.68;;;;;;;9.00;62.24;98723.67;4159386;84;21641;-82
2021/11/07 17:19:55;;;;;;;22.90;13.03;;;;;;;9.00;62.44;98737.33;4107212;85;21026;-83
2021/11/07 17:26:11;;;;;;;28.17;12.25;;;;;;;9.00;62.44;98720.94;4169735;85;21608;-83
2021/11/07 17:58:04;;;;;;;32.05;15.60;;;;;;;8.81;63.54;98728.47;3897980;90;21669;-83
2021/11/07 18:04:06;;;;;;;29.90;15.53;;;;;;;8.79;63.68;98728.04;3902256;90;21134;-83
2021/11/07 18:10:10;;;;;;;33.65;16.32;;;;;;;8.79;63.71;98742.48;3906248;89;21583;-83
2021/11/07 18:16:12;;;;;;;36.68;17.30;;;;;;;8.79;63.74;98743.05;3911065;90;21562;-83
2021/11/07 18:22:29;;;;;;;27.62;14.73;;;;;;;8.70;64.14;98735.14;3926471;90;21219;-82
2021/11/07 18:35:27;;;;;;;33.23;16.25;;;;;;;8.59;65.14;98739.66;3930232;84;21487;-82
2021/11/07 18:41:28;;;;;;;33.63;16.70;;;;;;;8.62;65.16;98758.59;3937777;88;21099;-82
2021/11/07 18:47:30;;;;;;;34.15;17.40;;;;;;;8.67;65.05;98768.63;3942111;88;21079;-83
2021/11/07 18:53:33;;;;;;;35.30;16.77;;;;;;;8.70;65.05;98771.98;3954169;87;21019;-82
2021/11/07 18:59:35;;;;;;;34.90;17.50;;;;;;;8.73;65.01;98770.45;3936160;88;21538;-83
2021/11/07 19:05:39;;;;;;;33.45;16.52;;;;;;;8.73;65.08;98776.70;4021701;88;21081;-83
2021/11/07 19:11:41;;;;;;;30.88;15.78;;;;;;;8.73;65.08;98766.36;4020287;88;21017;-82
2021/11/07 19:30:53;;;;;;;29.15;15.98;;;;;;;8.50;65.87;98773.24;3970432;88;21612;-82
2021/11/07 19:36:54;;;;;;;30.57;14.60;;;;;;;8.48;66.21;98787.02;3958267;88;21583;-83
2021/11/07 19:42:57;;;;;;;23.47;12.20;;;;;;;8.47;66.63;98781.37;3968013;88;21061;-83
2021/11/07 19:49:09;;;;;;;18.98;10.25;;;;;;;8.46;67.10;98768.30;3981554;89;21029;-83
2021/11/07 19:55:11;;;;;;;15.63;8.78;;;;;;;8.42;67.17;98785.20;3943884;89;21001;-82
2021/11/07 20:13:15;;;;;;;19.15;9.45;;;;;;;8.45;67.64;98798.67;3953597;89;21130;-83
2021/11/07 20:19:17;;;;;;;14.78;7.78;;;;;;;8.37;67.51;98807.31;3955319;89;20998;-83
2021/11/07 20:25:27;;;;;;;15.75;9.03;;;;;;;8.36;67.92;98821.31;3954314;88;21056;-83
2021/11/07 20:31:28;;;;;;;22.77;11.88;;;;;;;8.31;68.04;98833.89;3957544;88;21596;-82
2021/11/07 20:37:32;;;;;;;27.73;15.03;;;;;;;8.26;68.31;98850.55;3967610;88;21077;-83
2021/11/07 20:43:58;;;;;;;18.55;10.45;;;;;;;8.10;69.35;98849.86;3967003;87;20995;-83
2021/11/07 21:10:17;;;;;;;16.20;9.40;;;;;;;7.55;72.28;98854.61;3933560;88;21674;-84
2021/11/07 21:28:37;;;;;;;14.18;7.45;;;;;;;7.35;73.93;98874.02;3966143;88;21104;-84
2021/11/07 21:47:33;;;;;;;13.55;7.65;;;;;;;7.19;75.35;98865.09;3973056;89;21068;-85
2021/11/07 21:53:35;;;;;;;11.75;7.37;;;;;;;7.16;75.21;98864.44;3961616;88;21042;-84
2021/11/07 21:59:38;;;;;;;14.73;8.33;;;;;;;7.07;76.07;98875.55;3952794;88;21081;-83
2021/11/07 22:05:39;;;;;;;12.85;7.80;;;;;;;7.05;76.26;98872.94;3966663;88;21209;-85
2021/11/07 22:11:44;;;;;;;14.55;7.95;;;;;;;7.09;76.73;98875.19;3969136;89;21068;-84
2021/11/07 22:17:57;;;;;;;17.07;8.73;;;;;;;7.11;76.36;98876.40;3951102;88;22248;-84
2021/11/07 22:24:01;;;;;;;17.85;9.05;;;;;;;6.97;77.22;98871.99;3947307;88;21101;-83
2021/11/07 22:30:09;;;;;;;15.80;8.68;;;;;;;6.95;77.21;98864.78;3965680;89;21608;-85
2021/11/07 22:42:43;;;;;;;15.43;8.98;;;;;;;7.01;78.60;98871.52;3960190;88;21098;-83
2021/11/07 22:48:46;;;;;;;14.93;9.50;;;;;;;7.02;78.29;98872.29;3960799;88;21079;-83
2021/11/07 23:01:34;;;;;;;17.17;9.43;;;;;;;7.08;78.66;98879.83;3956673;87;21034;-83
2021/11/07 23:07:30;;;;;;;15.13;9.38;;;;;;;7.10;78.64;98884.36;3959951;87;21140;-83
2021/11/07 23:13:31;;;;;;;18.77;9.63;;;;;;;7.08;78.32;98881.20;3965071;88;21183;-84
2021/11/07 23:19:59;;;;;;;16.10;9.50;;;;;;;7.01;78.53;98871.52;3971075;88;21122;-83
2021/11/07 23:26:02;;;;;;;16.95;9.63;;;;;;;6.92;78.79;98868.17;3955118;88;21862;-85
2021/11/07 23:32:05;;;;;;;13.80;8.70;;;;;;;6.90;79.05;98870.48;3956701;88;21088;-84
2021/11/07 23:38:06;;;;;;;16.50;8.70;;;;;;;6.91;79.10;98870.69;3940760;88;21079;-84
2021/11/07 23:44:09;;;;;;;15.40;9.75;;;;;;;6.91;79.54;98878.86;3924528;89;21111;-83
2021/11/07 23:56:12;;;;;;;15.53;9.28;;;;;;;6.90;79.82;98886.81;3918888;89;21059;-84
